createdAt,value
2023-02-18T00:01:00.089Z,95.93
2023-02-18T00:03:28.421Z,95.96
2023-02-18T00:05:55.297Z,95.97
2023-02-18T00:08:22.295Z,95.98
2023-02-18T00:10:49.068Z,95.94
2023-02-18T00:13:15.933Z,95.86
2023-02-18T00:15:42.680Z,96.07
2023-02-18T00:18:09.494Z,96.79
2023-02-18T00:20:39.131Z,96.33
2023-02-18T00:23:05.903Z,96.39
2023-02-18T00:25:35.942Z,96.21
2023-02-18T00:28:02.682Z,96.95
2023-02-18T00:30:29.694Z,97.37
2023-02-18T00:32:56.460Z,97.08
2023-02-18T00:35:23.242Z,97.93
2023-02-18T00:37:52.162Z,97.51
2023-02-18T00:40:20.028Z,97.76
2023-02-18T00:42:46.712Z,98.79
2023-02-18T00:45:14.668Z,99.25
2023-02-18T00:47:41.634Z,98.34
2023-02-18T00:50:09.332Z,98.64
2023-02-18T00:52:36.444Z,98.62
2023-02-18T00:55:03.453Z,98.61
2023-02-18T00:57:30.334Z,98.77
2023-02-18T00:59:57.860Z,98.53
2023-02-18T01:02:25.001Z,99.83
2023-02-18T01:04:51.801Z,99.78
2023-02-18T01:07:18.679Z,99.63
2023-02-18T01:09:45.374Z,99.53
2023-02-18T01:12:13.765Z,99.89
2023-02-18T01:14:40.575Z,99.84
2023-02-18T01:17:07.318Z,99.59
2023-02-18T01:19:34.063Z,99.76
2023-02-18T01:22:00.933Z,99.22
2023-02-18T01:24:27.707Z,99.15
2023-02-18T01:26:54.488Z,99.16
2023-02-18T01:29:21.198Z,99.12
2023-02-18T01:31:48.025Z,98.94
2023-02-18T01:34:15.357Z,99.33
2023-02-18T01:36:42.260Z,99.11
2023-02-18T01:39:09.065Z,99.11
2023-02-18T01:41:35.968Z,99.10
2023-02-18T01:44:11.948Z,98.88
2023-02-18T01:46:38.767Z,98.94
2023-02-18T01:49:05.689Z,98.80
2023-02-18T01:51:36.314Z,98.61
2023-02-18T01:54:08.384Z,99.07
2023-02-18T01:56:36.947Z,98.81
2023-02-18T01:59:08.994Z,98.54
2023-02-18T02:01:35.940Z,98.93
2023-02-18T02:04:02.790Z,98.59
2023-02-18T02:06:31.232Z,98.98
2023-02-18T02:09:00.204Z,98.93
2023-02-18T02:11:36.481Z,99.02
2023-02-18T02:14:34.168Z,99.23
2023-02-18T02:17:09.430Z,99.19
2023-02-18T02:19:38.690Z,99.05
2023-02-18T02:22:35.726Z,98.97
2023-02-18T02:25:11.094Z,98.99
2023-02-18T02:28:22.463Z,98.73
2023-02-18T02:31:25.676Z,98.87
2023-02-18T02:34:25.496Z,98.82
2023-02-18T02:37:03.076Z,98.78
2023-02-18T02:40:03.183Z,99.32
2023-02-18T02:42:41.594Z,99.40
2023-02-18T02:45:14.882Z,99.47
2023-02-18T02:47:53.788Z,99.40
2023-02-18T02:50:30.677Z,99.59
2023-02-18T02:53:01.050Z,99.56
2023-02-18T02:55:27.850Z,99.64
2023-02-18T02:57:56.504Z,99.68
2023-02-18T03:00:49.943Z,100.00
2023-02-18T03:03:33.700Z,100.00
2023-02-18T03:06:00.984Z,100.00
2023-02-18T03:08:46.462Z,100.00
2023-02-18T03:11:15.983Z,100.00
2023-02-18T03:14:04.601Z,100.00
2023-02-18T03:16:45.764Z,100.00
2023-02-18T03:19:20.028Z,100.00
2023-02-18T03:22:00.102Z,99.92
2023-02-18T03:24:30.492Z,100.00
2023-02-18T03:27:01.605Z,99.32
2023-02-18T03:29:29.012Z,99.52
2023-02-18T03:31:58.690Z,100.00
2023-02-18T03:34:38.584Z,99.67
2023-02-18T03:37:05.874Z,99.74
2023-02-18T03:39:34.318Z,99.49
2023-02-18T03:42:01.106Z,99.74
2023-02-18T03:44:30.818Z,99.46
2023-02-18T03:46:57.732Z,100.00
2023-02-18T03:49:24.519Z,99.98
2023-02-18T03:51:51.338Z,99.98
2023-02-18T03:54:18.950Z,99.91
2023-02-18T03:56:45.815Z,100.00
2023-02-18T03:59:13.015Z,100.00
2023-02-18T04:01:40.189Z,100.00
2023-02-18T04:04:06.943Z,100.00
2023-02-18T04:06:33.806Z,100.00
2023-02-18T04:09:00.587Z,99.97
2023-02-18T04:11:27.333Z,99.57
2023-02-18T04:13:54.043Z,99.59
2023-02-18T04:16:20.846Z,99.51
2023-02-18T04:18:47.560Z,99.55
2023-02-18T04:21:14.248Z,99.59
2023-02-18T04:23:40.972Z,99.38
2023-02-18T04:26:08.032Z,99.42
2023-02-18T04:28:35.004Z,99.12
2023-02-18T04:31:01.927Z,99.15
2023-02-18T04:33:28.816Z,98.96
2023-02-18T04:35:55.538Z,98.75
2023-02-18T04:38:23.299Z,98.56
2023-02-18T04:40:50.001Z,98.65
2023-02-18T04:43:16.774Z,98.78
2023-02-18T04:45:43.520Z,98.82
2023-02-18T04:48:10.451Z,98.47
2023-02-18T04:50:37.205Z,98.12
2023-02-18T04:53:04.133Z,98.45
2023-02-18T04:55:30.818Z,98.27
2023-02-18T04:57:57.598Z,98.57
2023-02-18T05:00:24.530Z,98.53
2023-02-18T05:02:51.277Z,98.43
2023-02-18T05:05:18.030Z,98.49
2023-02-18T05:07:44.747Z,99.00
2023-02-18T05:10:16.267Z,98.55
2023-02-18T05:12:43.366Z,98.77
2023-02-18T05:15:10.496Z,98.79
2023-02-18T05:17:37.665Z,98.96
2023-02-18T05:20:06.816Z,98.86
2023-02-18T05:22:34.909Z,98.91
2023-02-18T05:25:01.705Z,98.71
2023-02-18T05:27:29.484Z,98.72
2023-02-18T05:29:56.329Z,98.65
2023-02-18T05:32:23.394Z,98.51
2023-02-18T05:34:50.193Z,98.66
2023-02-18T05:37:18.529Z,98.51
2023-02-18T05:39:45.735Z,98.56
2023-02-18T05:42:12.440Z,98.74
2023-02-18T05:44:39.242Z,98.85
2023-02-18T05:47:11.037Z,98.96
2023-02-18T05:49:39.666Z,99.43
2023-02-18T05:52:06.807Z,99.19
2023-02-18T05:54:34.397Z,98.81
2023-02-18T05:57:01.694Z,98.19
2023-02-18T05:59:29.180Z,98.79
2023-02-18T06:01:56.650Z,98.99
2023-02-18T06:04:23.902Z,99.23
2023-02-18T06:06:50.748Z,99.11
2023-02-18T06:09:17.523Z,99.34
2023-02-18T06:11:44.401Z,98.95
2023-02-18T06:14:11.132Z,98.97
2023-02-18T06:16:37.945Z,98.78
2023-02-18T06:19:04.756Z,98.60
2023-02-18T06:21:32.002Z,98.96
2023-02-18T06:23:58.950Z,98.67
2023-02-18T06:26:25.778Z,98.55
2023-02-18T06:28:52.748Z,98.14
2023-02-18T06:31:19.770Z,97.95
2023-02-18T06:33:46.830Z,97.90
2023-02-18T06:36:14.046Z,97.58
2023-02-18T06:38:43.240Z,97.51
2023-02-18T06:41:10.538Z,97.48
2023-02-18T06:43:37.384Z,97.44
2023-02-18T06:46:05.083Z,97.37
2023-02-18T06:48:31.998Z,97.03
2023-02-18T06:50:58.885Z,97.03
2023-02-18T06:53:25.604Z,96.93
2023-02-18T06:55:52.453Z,96.80
2023-02-18T06:58:19.339Z,96.79
2023-02-18T07:00:46.150Z,96.98
2023-02-18T07:03:14.457Z,96.60
2023-02-18T07:05:42.123Z,96.56
2023-02-18T07:08:09.432Z,96.34
2023-02-18T07:10:36.487Z,96.25
2023-02-18T07:13:03.284Z,96.26
2023-02-18T07:15:30.029Z,96.18
2023-02-18T07:17:56.755Z,96.12
2023-02-18T07:20:24.503Z,95.88
2023-02-18T07:22:51.423Z,95.92
2023-02-18T07:25:18.501Z,95.96
2023-02-18T07:27:45.211Z,95.88
2023-02-18T07:30:12.266Z,95.93
2023-02-18T07:32:39.595Z,95.75
2023-02-18T07:35:07.009Z,95.78
2023-02-18T07:37:33.641Z,95.44
2023-02-18T07:40:00.279Z,95.35
2023-02-18T07:42:27.014Z,95.31
2023-02-18T07:44:54.132Z,95.16
2023-02-18T07:47:20.879Z,94.93
2023-02-18T07:49:47.747Z,94.96
2023-02-18T07:52:15.891Z,94.80
2023-02-18T07:54:42.783Z,95.07
2023-02-18T07:57:09.835Z,94.96
2023-02-18T07:59:36.537Z,95.23
2023-02-18T08:02:05.283Z,94.90
2023-02-18T08:04:32.069Z,95.06
2023-02-18T08:06:58.812Z,94.87
2023-02-18T08:09:25.453Z,94.78
2023-02-18T08:11:52.200Z,94.40
2023-02-18T08:14:19.055Z,94.20
2023-02-18T08:16:45.897Z,94.19
2023-02-18T08:19:15.638Z,93.96
2023-02-18T08:21:42.303Z,93.72
2023-02-18T08:24:09.114Z,93.86
2023-02-18T08:26:35.824Z,93.72
2023-02-18T08:29:02.734Z,93.79
2023-02-18T08:31:31.094Z,92.86
2023-02-18T08:34:00.561Z,93.12
2023-02-18T08:36:27.990Z,91.66
2023-02-18T08:38:54.709Z,92.58
2023-02-18T08:41:21.440Z,92.36
2023-02-18T08:43:48.231Z,92.21
2023-02-18T08:46:16.006Z,92.09
2023-02-18T08:48:44.281Z,92.17
2023-02-18T08:51:19.295Z,91.50
2023-02-18T08:53:47.188Z,91.23
2023-02-18T08:56:15.028Z,91.50
2023-02-18T08:58:42.466Z,91.53
2023-02-18T09:01:11.243Z,91.20
2023-02-18T09:03:38.640Z,90.96
2023-02-18T09:06:05.743Z,90.49
2023-02-18T09:08:32.495Z,90.81
2023-02-18T09:11:01.067Z,89.91
2023-02-18T09:13:31.609Z,90.25
2023-02-18T09:16:06.773Z,90.00
2023-02-18T09:18:35.913Z,90.26
2023-02-18T09:21:03.462Z,90.34
2023-02-18T09:23:31.083Z,89.87
2023-02-18T09:25:59.300Z,89.96
2023-02-18T09:28:26.456Z,89.45
2023-02-18T09:30:53.226Z,89.50
2023-02-18T09:33:20.083Z,89.73
2023-02-18T09:35:46.786Z,89.32
2023-02-18T09:38:16.385Z,89.02
2023-02-18T09:40:48.893Z,88.45
2023-02-18T09:43:32.998Z,88.44
2023-02-18T09:46:01.508Z,89.35
2023-02-18T09:48:34.219Z,88.88
2023-02-18T09:51:01.011Z,88.99
2023-02-18T09:53:28.132Z,89.08
2023-02-18T09:55:56.658Z,89.04
2023-02-18T09:58:33.685Z,88.36
2023-02-18T10:01:07.040Z,88.34
2023-02-18T10:03:33.972Z,88.80
2023-02-18T10:06:02.081Z,88.82
2023-02-18T10:08:36.441Z,87.91
2023-02-18T10:11:03.315Z,88.46
2023-02-18T10:13:32.981Z,88.21
2023-02-18T10:16:00.158Z,88.36
2023-02-18T10:18:36.582Z,87.83
2023-02-18T10:21:09.623Z,88.27
2023-02-18T10:23:39.870Z,88.47
2023-02-18T10:26:11.020Z,88.32
2023-02-18T10:28:38.816Z,88.49
2023-02-18T10:31:10.901Z,88.20
2023-02-18T10:33:50.203Z,87.36
2023-02-18T10:36:31.148Z,87.47
2023-02-18T10:39:20.445Z,85.37
2023-02-18T10:41:57.295Z,86.49
2023-02-18T10:44:48.779Z,85.50
2023-02-18T10:47:29.613Z,86.35
2023-02-18T10:50:00.697Z,85.56
2023-02-18T10:52:30.452Z,86.11
2023-02-18T10:55:04.515Z,86.05
2023-02-18T10:57:31.694Z,86.07
2023-02-18T11:00:24.044Z,84.79
2023-02-18T11:03:12.911Z,84.78
2023-02-18T11:05:39.668Z,85.94
2023-02-18T11:08:08.755Z,85.24
2023-02-18T11:10:39.515Z,85.24
2023-02-18T11:13:08.463Z,85.11
2023-02-18T11:15:35.810Z,84.85
2023-02-18T11:18:25.853Z,83.75
2023-02-18T11:20:57.886Z,84.20
2023-02-18T11:23:25.726Z,84.11
2023-02-18T11:26:04.190Z,83.82
2023-02-18T11:28:41.688Z,83.56
2023-02-18T11:31:10.483Z,83.39
2023-02-18T11:33:45.933Z,83.39
2023-02-18T11:36:27.599Z,83.26
2023-02-18T11:39:29.185Z,82.98
2023-02-18T11:42:06.951Z,83.15
2023-02-18T11:44:38.618Z,83.66
2023-02-18T11:47:07.320Z,82.48
2023-02-18T11:49:35.662Z,83.32
2023-02-18T11:52:06.351Z,82.67
2023-02-18T11:54:35.417Z,83.00
2023-02-18T11:57:04.813Z,83.10
2023-02-18T11:59:36.839Z,82.32
2023-02-18T12:02:09.710Z,81.86
2023-02-18T12:05:11.623Z,81.60
2023-02-18T12:07:45.392Z,82.14
2023-02-18T12:10:23.952Z,81.15
2023-02-18T12:12:52.788Z,81.10
2023-02-18T12:15:26.847Z,81.00
2023-02-18T12:18:25.312Z,80.23
2023-02-18T12:21:08.825Z,79.69
2023-02-18T12:23:35.643Z,80.76
2023-02-18T12:26:28.143Z,78.76
2023-02-18T12:29:00.633Z,79.62
2023-02-18T12:31:59.295Z,79.79
2023-02-18T12:34:54.716Z,80.29
2023-02-18T12:38:05.958Z,76.73
2023-02-18T12:40:47.593Z,77.14
2023-02-18T12:43:55.332Z,78.98
2023-02-18T12:47:09.795Z,79.66
2023-02-18T12:49:51.309Z,80.33
2023-02-18T12:52:35.319Z,74.96
2023-02-18T12:55:01.868Z,77.30
2023-02-18T12:57:45.659Z,75.60
2023-02-18T13:00:40.016Z,74.34
2023-02-18T13:03:24.958Z,76.16
2023-02-18T13:06:17.695Z,76.32
2023-02-18T13:09:00.963Z,75.83
2023-02-18T13:11:54.596Z,76.17
2023-02-18T13:14:24.473Z,72.48
2023-02-18T13:16:55.089Z,76.23
2023-02-18T13:19:27.597Z,76.03
2023-02-18T13:21:56.861Z,75.56
2023-02-18T13:24:39.919Z,75.82
2023-02-18T13:27:24.724Z,74.29
2023-02-18T13:30:09.883Z,74.22
2023-02-18T13:32:38.380Z,74.21
2023-02-18T13:35:13.822Z,74.22
2023-02-18T13:37:55.203Z,73.76
2023-02-18T13:40:24.946Z,72.42
2023-02-18T13:42:54.782Z,74.40
2023-02-18T13:45:33.571Z,72.55
2023-02-18T13:48:00.991Z,72.55
2023-02-18T13:50:33.040Z,73.16
2023-02-18T13:53:08.826Z,72.48
2023-02-18T13:55:39.564Z,74.04
2023-02-18T13:58:16.532Z,72.85
2023-02-18T14:00:50.081Z,72.92
2023-02-18T14:03:33.479Z,73.04
2023-02-18T14:06:00.217Z,73.20
2023-02-18T14:08:45.076Z,72.93
2023-02-18T14:11:11.773Z,73.05
2023-02-18T14:13:43.121Z,72.42
2023-02-18T14:16:11.093Z,73.08
2023-02-18T14:18:40.501Z,73.00
2023-02-18T14:21:37.294Z,70.16
2023-02-18T14:24:07.218Z,71.83
2023-02-18T14:26:40.637Z,71.52
2023-02-18T14:29:14.495Z,70.78
2023-02-18T14:31:47.687Z,71.59
2023-02-18T14:34:32.606Z,71.04
2023-02-18T14:37:26.921Z,71.26
2023-02-18T14:40:06.536Z,70.00
2023-02-18T14:42:38.954Z,72.56
2023-02-18T14:45:31.222Z,71.55
2023-02-18T14:48:48.803Z,71.92
2023-02-18T14:51:17.176Z,72.69
2023-02-18T14:53:44.874Z,70.18
2023-02-18T14:56:16.163Z,70.32
2023-02-18T14:58:46.931Z,71.30
2023-02-18T15:01:20.885Z,71.49
2023-02-18T15:03:49.631Z,71.74
2023-02-18T15:06:32.184Z,71.06
2023-02-18T15:09:00.027Z,71.84
2023-02-18T15:11:37.309Z,69.75
2023-02-18T15:14:10.845Z,70.71
2023-02-18T15:16:38.607Z,70.60
2023-02-18T15:19:08.476Z,70.61
2023-02-18T15:21:42.077Z,70.70
2023-02-18T15:24:17.864Z,70.41
2023-02-18T15:26:48.902Z,70.64
2023-02-18T15:29:19.718Z,70.23
2023-02-18T15:31:47.722Z,70.41
2023-02-18T15:34:39.107Z,69.91
2023-02-18T15:37:07.977Z,70.46
2023-02-18T15:39:38.429Z,70.83
2023-02-18T15:42:29.256Z,69.98
2023-02-18T15:44:58.810Z,70.24
2023-02-18T15:47:25.620Z,70.31
2023-02-18T15:49:58.299Z,70.13
2023-02-18T15:52:31.904Z,69.57
2023-02-18T15:55:05.113Z,70.05
2023-02-18T15:57:32.990Z,70.57
2023-02-18T16:00:05.623Z,70.09
2023-02-18T16:02:34.130Z,70.26
2023-02-18T16:05:04.981Z,70.08
2023-02-18T16:07:38.061Z,70.03
2023-02-18T16:10:13.468Z,69.85
2023-02-18T16:12:40.638Z,69.22
2023-02-18T16:15:09.882Z,69.46
2023-02-18T16:17:36.596Z,69.40
2023-02-18T16:20:25.002Z,68.96
2023-02-18T16:22:53.860Z,70.14
2023-02-18T16:25:26.598Z,69.71
2023-02-18T16:27:59.346Z,69.68
2023-02-18T16:30:28.996Z,70.54
2023-02-18T16:32:57.781Z,70.70
2023-02-18T16:35:25.774Z,70.95
2023-02-18T16:37:53.972Z,70.87
2023-02-18T16:40:27.298Z,71.07
2023-02-18T16:42:54.814Z,71.33
2023-02-18T16:45:23.462Z,71.37
2023-02-18T16:47:50.361Z,71.55
2023-02-18T16:50:20.068Z,71.78
2023-02-18T16:52:48.556Z,71.83
2023-02-18T16:55:20.885Z,71.60
2023-02-18T16:57:48.470Z,71.97
2023-02-18T17:00:17.723Z,71.81
2023-02-18T17:02:47.243Z,71.39
2023-02-18T17:05:29.003Z,70.99
2023-02-18T17:08:00.111Z,69.81
2023-02-18T17:10:27.034Z,71.03
2023-02-18T17:12:53.911Z,70.42
2023-02-18T17:15:23.359Z,69.79
2023-02-18T17:17:50.100Z,70.11
2023-02-18T17:20:17.055Z,70.31
2023-02-18T17:22:44.123Z,70.57
2023-02-18T17:25:38.665Z,68.93
2023-02-18T17:28:06.069Z,69.91
2023-02-18T17:30:35.869Z,69.88
2023-02-18T17:33:03.512Z,70.27
2023-02-18T17:35:30.825Z,70.61
2023-02-18T17:37:57.626Z,70.59
2023-02-18T17:40:27.004Z,70.50
2023-02-18T17:42:56.502Z,70.39
2023-02-18T17:45:29.038Z,70.05
2023-02-18T17:47:57.215Z,70.16
2023-02-18T17:50:24.508Z,70.24
2023-02-18T17:52:51.409Z,70.28
2023-02-18T17:55:22.821Z,70.34
2023-02-18T17:57:50.683Z,70.48
2023-02-18T18:00:25.823Z,69.37
2023-02-18T18:02:52.888Z,70.39
2023-02-18T18:05:31.608Z,70.03
2023-02-18T18:07:58.326Z,70.76
2023-02-18T18:10:32.082Z,70.41
2023-02-18T18:13:01.075Z,70.81
2023-02-18T18:15:31.824Z,70.65
2023-02-18T18:18:01.100Z,70.38
2023-02-18T18:20:29.697Z,70.92
2023-02-18T18:22:57.964Z,70.97
2023-02-18T18:25:29.239Z,71.23
2023-02-18T18:27:56.181Z,70.93
2023-02-18T18:30:25.738Z,70.86
2023-02-18T18:32:52.426Z,71.37
2023-02-18T18:35:25.331Z,71.20
2023-02-18T18:37:52.920Z,71.30
2023-02-18T18:40:21.542Z,71.11
2023-02-18T18:42:48.823Z,70.80
2023-02-18T18:45:41.684Z,70.70
2023-02-18T18:48:08.428Z,71.17
2023-02-18T18:50:37.540Z,71.38
2023-02-18T18:53:04.358Z,71.00
2023-02-18T18:55:36.525Z,70.92
2023-02-18T18:58:05.588Z,71.34
2023-02-18T19:00:37.460Z,71.18
2023-02-18T19:03:04.879Z,71.38
2023-02-18T19:05:32.708Z,71.40
2023-02-18T19:07:59.981Z,70.77
2023-02-18T19:10:29.991Z,70.77
2023-02-18T19:13:04.811Z,70.57
2023-02-18T19:15:32.019Z,70.72
2023-02-18T19:17:58.844Z,70.62
2023-02-18T19:20:29.032Z,70.71
2023-02-18T19:22:55.845Z,70.78
2023-02-18T19:25:22.880Z,70.58
2023-02-18T19:27:50.522Z,70.69
2023-02-18T19:30:28.792Z,70.45
2023-02-18T19:32:57.438Z,70.66
2023-02-18T19:35:24.957Z,71.14
2023-02-18T19:37:52.268Z,71.11
2023-02-18T19:40:21.703Z,71.02
2023-02-18T19:42:48.836Z,70.87
2023-02-18T19:45:16.705Z,70.87
2023-02-18T19:47:45.776Z,70.88
2023-02-18T19:50:16.199Z,70.43
2023-02-18T19:52:42.972Z,70.71
2023-02-18T19:55:10.083Z,70.63
2023-02-18T19:57:36.867Z,71.06
2023-02-18T20:00:10.117Z,71.25
2023-02-18T20:02:40.298Z,71.52
2023-02-18T20:05:08.404Z,71.02
2023-02-18T20:07:36.238Z,71.21
2023-02-18T20:10:06.307Z,71.10
2023-02-18T20:12:33.342Z,71.20
2023-02-18T20:15:00.463Z,71.39
2023-02-18T20:17:27.256Z,71.31
2023-02-18T20:19:54.085Z,71.73
2023-02-18T20:22:20.823Z,71.49
2023-02-18T20:24:48.010Z,71.31
2023-02-18T20:27:15.174Z,71.40
2023-02-18T20:29:42.064Z,71.15
2023-02-18T20:32:09.307Z,71.57
2023-02-18T20:34:36.385Z,71.05
2023-02-18T20:37:03.047Z,70.87
2023-02-18T20:39:29.785Z,71.04
2023-02-18T20:41:57.904Z,71.27
2023-02-18T20:44:26.291Z,71.38
2023-02-18T20:46:53.416Z,71.37
2023-02-18T20:49:21.496Z,72.03
2023-02-18T20:51:51.357Z,72.26
2023-02-18T20:54:19.771Z,71.96
2023-02-18T20:56:48.594Z,71.89
2023-02-18T20:59:17.684Z,71.89
2023-02-18T21:01:45.220Z,72.12
2023-02-18T21:04:13.584Z,71.87
2023-02-18T21:06:40.424Z,71.94
2023-02-18T21:09:07.198Z,71.94
2023-02-18T21:11:33.920Z,72.32
2023-02-18T21:14:01.563Z,71.88
2023-02-18T21:16:29.636Z,72.16
2023-02-18T21:18:56.435Z,72.48
2023-02-18T21:21:23.655Z,72.13
2023-02-18T21:23:50.588Z,72.30
2023-02-18T21:26:20.410Z,72.39
2023-02-18T21:28:52.927Z,72.42
2023-02-18T21:31:25.307Z,72.54
2023-02-18T21:33:52.188Z,72.75
2023-02-18T21:36:19.743Z,72.74
2023-02-18T21:38:51.894Z,72.69
2023-02-18T21:41:18.683Z,72.96
2023-02-18T21:43:46.210Z,73.14
2023-02-18T21:46:27.410Z,73.33
2023-02-18T21:49:09.248Z,73.54
2023-02-18T21:51:56.706Z,73.49
2023-02-18T21:54:31.928Z,73.57
2023-02-18T21:57:00.054Z,73.47
2023-02-18T21:59:29.360Z,73.28
2023-02-18T22:01:57.082Z,73.12
2023-02-18T22:04:25.239Z,73.35
2023-02-18T22:06:52.988Z,73.24
2023-02-18T22:09:19.955Z,73.13
2023-02-18T22:11:46.697Z,73.08
2023-02-18T22:14:14.406Z,73.18
2023-02-18T22:16:41.679Z,73.07
2023-02-18T22:19:10.686Z,73.06
2023-02-18T22:21:37.600Z,73.13
2023-02-18T22:24:05.514Z,72.97
2023-02-18T22:26:32.231Z,73.16
2023-02-18T22:28:59.471Z,73.26
2023-02-18T22:31:28.327Z,72.81
2023-02-18T22:33:56.097Z,73.01
2023-02-18T22:36:24.078Z,73.15
2023-02-18T22:38:51.237Z,73.03
2023-02-18T22:41:19.740Z,73.03
2023-02-18T22:43:46.717Z,72.82
2023-02-18T22:46:15.720Z,72.90
2023-02-18T22:48:42.742Z,72.96
2023-02-18T22:51:12.650Z,72.92
2023-02-18T22:53:39.789Z,72.89
2023-02-18T22:56:18.407Z,72.78
2023-02-18T22:58:46.819Z,73.20
2023-02-18T23:01:27.021Z,72.96
2023-02-18T23:03:54.990Z,72.95
2023-02-18T23:06:22.117Z,73.10
2023-02-18T23:08:49.334Z,73.18
2023-02-18T23:11:18.559Z,73.00
2023-02-18T23:13:45.500Z,73.14
2023-02-18T23:16:13.994Z,73.27
2023-02-18T23:18:40.822Z,73.30
2023-02-18T23:21:17.900Z,73.09
2023-02-18T23:23:46.226Z,73.29
2023-02-18T23:26:13.446Z,73.03
2023-02-18T23:28:49.407Z,73.48
2023-02-18T23:31:27.234Z,73.56
2023-02-18T23:33:56.544Z,73.74
2023-02-18T23:36:25.898Z,73.77
2023-02-18T23:38:55.162Z,74.11
2023-02-18T23:41:22.518Z,74.17
2023-02-18T23:43:49.791Z,74.28
2023-02-18T23:46:18.252Z,74.25
2023-02-18T23:48:45.195Z,74.22
2023-02-18T23:51:16.819Z,74.36
2023-02-18T23:53:43.628Z,74.73
2023-02-18T23:56:27.332Z,74.60
2023-02-18T23:58:57.295Z,74.85
